Terminal Aerodrome Forecast
Issued by NWS

Home | Current Version | Previous Version | Graphics & Text | Print | Product List | Glossary On
Versions: 1 2 3 4 5 6 7 8 9 10 11 12 13
000
FTUS43 KIWX 251730
TAFSBN
TAF
KSBN 251730Z 2518/2618 28007KT P6SM VCSH BKN030 BKN050
     FM260100 30009KT P6SM SCT030
     FM261100 VRB05KT 4SM BR FEW040 SCT200
     FM261400 VRB05KT P6SM BKN250=

USA.gov is the U.S. government's official web portal to all federal, state and local government web resources and services.